38OI weather

Ronshausen Airport
Darbyville, Ohio, United States

Public forecast

Using degrees Fahrenheit for public forecast. Weather courtesy of forecast.io.

Closest aviation weather report (METAR) to Ronshausen Airport

Closest report is Rickenbacker International Airport, 10.2 nm (18.9 km) NE. Retrieved 2020/05/30 06:55 UTC (1 hour ago):

KLCK 300655Z AUTO 00000KT BKN100 13/13 A3003 RMK AO2 T01320128

Closest aviation forecast (TAF) to Ronshausen Airport

Closest forecast is Rickenbacker International Airport, 10.2 nm (18.9 km) NE. Retrieved 2020/05/30 06:00 UTC (2 hours ago):

TAF KLCK 300540Z 3006/3106 VRB03KT P6SM BKN070 FM300900 30004KT P6SM SCT070 TEMPO 3009/3011 4SM BR FM301400 32010KT P6SM SCT050 FM310000 34005KT P6SM SKC